sensor_id;sensor_type;location;lat;lon;timestamp;P1;durP1;ratioP1;P2;durP2;ratioP2
17441;SDS011;8838;50.144;8.176;2024-02-15T00:01:50;17.58;;;10.23;;
17441;SDS011;8838;50.144;8.176;2024-02-15T00:04:17;17.90;;;9.95;;
17441;SDS011;8838;50.144;8.176;2024-02-15T00:06:45;15.77;;;8.60;;
17441;SDS011;8838;50.144;8.176;2024-02-15T00:09:12;15.43;;;9.25;;
17441;SDS011;8838;50.144;8.176;2024-02-15T00:11:39;15.43;;;8.30;;
17441;SDS011;8838;50.144;8.176;2024-02-15T00:14:06;13.30;;;7.85;;
17441;SDS011;8838;50.144;8.176;2024-02-15T00:16:33;11.75;;;7.25;;
17441;SDS011;8838;50.144;8.176;2024-02-15T00:19:00;16.10;;;7.57;;
17441;SDS011;8838;50.144;8.176;2024-02-15T00:21:27;13.25;;;7.55;;
17441;SDS011;8838;50.144;8.176;2024-02-15T00:23:55;14.65;;;8.63;;
17441;SDS011;8838;50.144;8.176;2024-02-15T00:26:25;18.73;;;8.88;;
17441;SDS011;8838;50.144;8.176;2024-02-15T00:28:52;17.10;;;9.77;;
17441;SDS011;8838;50.144;8.176;2024-02-15T00:31:18;14.10;;;8.30;;
17441;SDS011;8838;50.144;8.176;2024-02-15T00:33:45;13.82;;;7.70;;
17441;SDS011;8838;50.144;8.176;2024-02-15T00:36:12;9.63;;;7.43;;
17441;SDS011;8838;50.144;8.176;2024-02-15T00:38:39;13.30;;;8.55;;
17441;SDS011;8838;50.144;8.176;2024-02-15T00:41:09;13.32;;;7.72;;
17441;SDS011;8838;50.144;8.176;2024-02-15T00:43:36;13.60;;;7.53;;
17441;SDS011;8838;50.144;8.176;2024-02-15T00:46:03;12.10;;;6.68;;
17441;SDS011;8838;50.144;8.176;2024-02-15T00:48:29;15.45;;;7.60;;
17441;SDS011;8838;50.144;8.176;2024-02-15T00:50:57;13.05;;;6.93;;
17441;SDS011;8838;50.144;8.176;2024-02-15T00:53:23;14.43;;;7.07;;
17441;SDS011;8838;50.144;8.176;2024-02-15T00:55:51;13.35;;;7.20;;
17441;SDS011;8838;50.144;8.176;2024-02-15T00:58:19;12.80;;;6.57;;
17441;SDS011;8838;50.144;8.176;2024-02-15T01:00:46;13.35;;;7.20;;
17441;SDS011;8838;50.144;8.176;2024-02-15T01:03:14;12.98;;;6.38;;
17441;SDS011;8838;50.144;8.176;2024-02-15T01:05:42;14.45;;;6.82;;
17441;SDS011;8838;50.144;8.176;2024-02-15T01:08:08;13.60;;;6.50;;
17441;SDS011;8838;50.144;8.176;2024-02-15T01:10:36;9.43;;;5.90;;
17441;SDS011;8838;50.144;8.176;2024-02-15T01:13:03;13.13;;;7.60;;
17441;SDS011;8838;50.144;8.176;2024-02-15T01:15:31;11.50;;;7.68;;
17441;SDS011;8838;50.144;8.176;2024-02-15T01:17:58;17.30;;;8.82;;
17441;SDS011;8838;50.144;8.176;2024-02-15T01:20:24;15.02;;;6.95;;
17441;SDS011;8838;50.144;8.176;2024-02-15T01:22:51;15.30;;;8.40;;
17441;SDS011;8838;50.144;8.176;2024-02-15T01:25:18;15.70;;;9.45;;
17441;SDS011;8838;50.144;8.176;2024-02-15T01:27:46;19.73;;;10.30;;
17441;SDS011;8838;50.144;8.176;2024-02-15T01:30:13;16.63;;;10.95;;
17441;SDS011;8838;50.144;8.176;2024-02-15T01:32:41;16.48;;;8.65;;
17441;SDS011;8838;50.144;8.176;2024-02-15T01:35:08;14.40;;;7.95;;
17441;SDS011;8838;50.144;8.176;2024-02-15T01:37:35;13.35;;;7.28;;
17441;SDS011;8838;50.144;8.176;2024-02-15T01:40:03;14.63;;;6.85;;
17441;SDS011;8838;50.144;8.176;2024-02-15T01:42:31;12.25;;;7.82;;
17441;SDS011;8838;50.144;8.176;2024-02-15T01:44:58;12.70;;;7.60;;
17441;SDS011;8838;50.144;8.176;2024-02-15T01:47:25;16.58;;;7.38;;
17441;SDS011;8838;50.144;8.176;2024-02-15T01:49:53;14.20;;;7.93;;
17441;SDS011;8838;50.144;8.176;2024-02-15T01:52:20;10.43;;;6.70;;
17441;SDS011;8838;50.144;8.176;2024-02-15T01:54:47;13.77;;;7.35;;
17441;SDS011;8838;50.144;8.176;2024-02-15T01:57:16;12.95;;;7.07;;
17441;SDS011;8838;50.144;8.176;2024-02-15T01:59:43;19.40;;;9.32;;
17441;SDS011;8838;50.144;8.176;2024-02-15T02:02:10;13.85;;;7.05;;
17441;SDS011;8838;50.144;8.176;2024-02-15T02:04:40;15.77;;;6.43;;
17441;SDS011;8838;50.144;8.176;2024-02-15T02:07:09;14.85;;;6.80;;
17441;SDS011;8838;50.144;8.176;2024-02-15T02:09:36;14.45;;;7.32;;
17441;SDS011;8838;50.144;8.176;2024-02-15T02:12:03;12.15;;;6.90;;
17441;SDS011;8838;50.144;8.176;2024-02-15T02:14:32;12.98;;;6.55;;
17441;SDS011;8838;50.144;8.176;2024-02-15T02:17:10;11.00;;;4.88;;
17441;SDS011;8838;50.144;8.176;2024-02-15T02:19:38;12.05;;;6.63;;
17441;SDS011;8838;50.144;8.176;2024-02-15T02:22:05;13.27;;;4.95;;
17441;SDS011;8838;50.144;8.176;2024-02-15T02:24:38;10.50;;;5.40;;
17441;SDS011;8838;50.144;8.176;2024-02-15T02:27:12;11.00;;;4.05;;
17441;SDS011;8838;50.144;8.176;2024-02-15T02:29:42;11.40;;;3.80;;
17441;SDS011;8838;50.144;8.176;2024-02-15T02:32:10;8.82;;;3.78;;
17441;SDS011;8838;50.144;8.176;2024-02-15T02:34:37;8.32;;;3.72;;
17441;SDS011;8838;50.144;8.176;2024-02-15T02:37:05;10.43;;;3.55;;
17441;SDS011;8838;50.144;8.176;2024-02-15T02:39:33;9.38;;;4.10;;
17441;SDS011;8838;50.144;8.176;2024-02-15T02:42:00;10.55;;;3.63;;
17441;SDS011;8838;50.144;8.176;2024-02-15T02:44:28;9.20;;;3.63;;
17441;SDS011;8838;50.144;8.176;2024-02-15T02:46:55;8.52;;;4.00;;
17441;SDS011;8838;50.144;8.176;2024-02-15T02:49:22;7.95;;;3.22;;
17441;SDS011;8838;50.144;8.176;2024-02-15T02:51:49;9.88;;;3.70;;
17441;SDS011;8838;50.144;8.176;2024-02-15T02:54:15;8.60;;;3.55;;
17441;SDS011;8838;50.144;8.176;2024-02-15T02:56:42;11.32;;;5.28;;
17441;SDS011;8838;50.144;8.176;2024-02-15T02:59:10;13.55;;;4.97;;
17441;SDS011;8838;50.144;8.176;2024-02-15T03:01:39;9.43;;;4.50;;
17441;SDS011;8838;50.144;8.176;2024-02-15T03:04:06;11.32;;;5.32;;
17441;SDS011;8838;50.144;8.176;2024-02-15T03:06:33;12.95;;;5.00;;
17441;SDS011;8838;50.144;8.176;2024-02-15T03:09:00;14.10;;;6.93;;
17441;SDS011;8838;50.144;8.176;2024-02-15T03:11:32;15.98;;;9.00;;
17441;SDS011;8838;50.144;8.176;2024-02-15T03:13:58;16.60;;;11.63;;
17441;SDS011;8838;50.144;8.176;2024-02-15T03:16:25;19.10;;;11.48;;
17441;SDS011;8838;50.144;8.176;2024-02-15T03:18:53;17.60;;;11.95;;
17441;SDS011;8838;50.144;8.176;2024-02-15T03:21:20;16.55;;;11.73;;
17441;SDS011;8838;50.144;8.176;2024-02-15T03:23:47;18.90;;;12.30;;
17441;SDS011;8838;50.144;8.176;2024-02-15T03:26:14;17.95;;;11.90;;
17441;SDS011;8838;50.144;8.176;2024-02-15T03:28:41;19.00;;;12.15;;
17441;SDS011;8838;50.144;8.176;2024-02-15T03:31:09;17.85;;;12.35;;
17441;SDS011;8838;50.144;8.176;2024-02-15T03:33:36;21.15;;;11.50;;
17441;SDS011;8838;50.144;8.176;2024-02-15T03:36:05;16.40;;;11.43;;
17441;SDS011;8838;50.144;8.176;2024-02-15T03:38:32;18.83;;;11.73;;
17441;SDS011;8838;50.144;8.176;2024-02-15T03:40:59;17.70;;;11.45;;
17441;SDS011;8838;50.144;8.176;2024-02-15T03:43:27;19.70;;;11.32;;
17441;SDS011;8838;50.144;8.176;2024-02-15T03:45:54;17.85;;;11.00;;
17441;SDS011;8838;50.144;8.176;2024-02-15T03:48:20;14.07;;;10.05;;
17441;SDS011;8838;50.144;8.176;2024-02-15T03:50:47;16.88;;;11.05;;
17441;SDS011;8838;50.144;8.176;2024-02-15T03:53:15;15.77;;;10.98;;
17441;SDS011;8838;50.144;8.176;2024-02-15T03:55:42;18.40;;;10.27;;
17441;SDS011;8838;50.144;8.176;2024-02-15T03:58:09;17.50;;;9.30;;
17441;SDS011;8838;50.144;8.176;2024-02-15T04:00:37;17.88;;;11.05;;
17441;SDS011;8838;50.144;8.176;2024-02-15T04:03:05;22.10;;;12.57;;
17441;SDS011;8838;50.144;8.176;2024-02-15T04:05:32;20.42;;;11.93;;
17441;SDS011;8838;50.144;8.176;2024-02-15T04:07:58;21.65;;;13.18;;
17441;SDS011;8838;50.144;8.176;2024-02-15T04:10:28;24.33;;;13.13;;
17441;SDS011;8838;50.144;8.176;2024-02-15T04:12:55;20.77;;;12.80;;
17441;SDS011;8838;50.144;8.176;2024-02-15T04:15:23;21.55;;;13.23;;
17441;SDS011;8838;50.144;8.176;2024-02-15T04:17:50;17.23;;;11.57;;
17441;SDS011;8838;50.144;8.176;2024-02-15T04:20:21;23.38;;;13.02;;
17441;SDS011;8838;50.144;8.176;2024-02-15T04:22:47;21.88;;;11.85;;
17441;SDS011;8838;50.144;8.176;2024-02-15T04:25:15;22.77;;;13.40;;
17441;SDS011;8838;50.144;8.176;2024-02-15T04:27:43;25.42;;;14.77;;
17441;SDS011;8838;50.144;8.176;2024-02-15T04:30:11;28.60;;;14.85;;
17441;SDS011;8838;50.144;8.176;2024-02-15T04:32:39;25.73;;;13.55;;
17441;SDS011;8838;50.144;8.176;2024-02-15T04:35:06;26.38;;;13.30;;
17441;SDS011;8838;50.144;8.176;2024-02-15T04:37:35;27.75;;;13.93;;
17441;SDS011;8838;50.144;8.176;2024-02-15T04:40:02;26.92;;;13.35;;
17441;SDS011;8838;50.144;8.176;2024-02-15T04:42:33;25.52;;;13.35;;
17441;SDS011;8838;50.144;8.176;2024-02-15T04:45:02;24.20;;;12.77;;
17441;SDS011;8838;50.144;8.176;2024-02-15T04:47:30;23.50;;;11.90;;
17441;SDS011;8838;50.144;8.176;2024-02-15T04:49:57;21.95;;;12.10;;
17441;SDS011;8838;50.144;8.176;2024-02-15T04:52:24;20.63;;;11.70;;
17441;SDS011;8838;50.144;8.176;2024-02-15T04:54:50;22.90;;;12.13;;
17441;SDS011;8838;50.144;8.176;2024-02-15T04:57:19;24.52;;;12.65;;
17441;SDS011;8838;50.144;8.176;2024-02-15T04:59:45;22.60;;;13.18;;
17441;SDS011;8838;50.144;8.176;2024-02-15T05:02:15;22.80;;;12.50;;
17441;SDS011;8838;50.144;8.176;2024-02-15T05:04:42;20.80;;;11.40;;
17441;SDS011;8838;50.144;8.176;2024-02-15T05:07:09;19.75;;;11.73;;
17441;SDS011;8838;50.144;8.176;2024-02-15T05:09:36;21.08;;;11.75;;
17441;SDS011;8838;50.144;8.176;2024-02-15T05:12:03;20.20;;;12.73;;
17441;SDS011;8838;50.144;8.176;2024-02-15T05:14:31;23.73;;;12.57;;
17441;SDS011;8838;50.144;8.176;2024-02-15T05:16:58;21.83;;;12.88;;
17441;SDS011;8838;50.144;8.176;2024-02-15T05:19:26;22.98;;;13.55;;
17441;SDS011;8838;50.144;8.176;2024-02-15T05:21:55;26.05;;;13.55;;
17441;SDS011;8838;50.144;8.176;2024-02-15T05:24:22;22.35;;;13.13;;
17441;SDS011;8838;50.144;8.176;2024-02-15T05:26:49;25.95;;;15.35;;
17441;SDS011;8838;50.144;8.176;2024-02-15T05:29:15;26.13;;;14.80;;
17441;SDS011;8838;50.144;8.176;2024-02-15T05:31:42;40.47;;;18.02;;
17441;SDS011;8838;50.144;8.176;2024-02-15T05:34:10;46.83;;;19.08;;
17441;SDS011;8838;50.144;8.176;2024-02-15T05:36:38;115.78;;;21.10;;
17441;SDS011;8838;50.144;8.176;2024-02-15T05:39:05;70.93;;;19.85;;
17441;SDS011;8838;50.144;8.176;2024-02-15T05:41:33;81.65;;;21.52;;
17441;SDS011;8838;50.144;8.176;2024-02-15T05:44:00;58.88;;;20.25;;
17441;SDS011;8838;50.144;8.176;2024-02-15T05:46:29;33.50;;;17.30;;
17441;SDS011;8838;50.144;8.176;2024-02-15T05:48:56;32.92;;;17.95;;
17441;SDS011;8838;50.144;8.176;2024-02-15T05:51:24;30.15;;;18.65;;
17441;SDS011;8838;50.144;8.176;2024-02-15T05:53:52;30.65;;;18.67;;
17441;SDS011;8838;50.144;8.176;2024-02-15T05:56:23;32.03;;;19.05;;
17441;SDS011;8838;50.144;8.176;2024-02-15T05:58:51;31.40;;;18.73;;
17441;SDS011;8838;50.144;8.176;2024-02-15T06:01:17;29.75;;;19.25;;
17441;SDS011;8838;50.144;8.176;2024-02-15T06:03:44;32.58;;;19.15;;
17441;SDS011;8838;50.144;8.176;2024-02-15T06:06:13;28.13;;;18.05;;
17441;SDS011;8838;50.144;8.176;2024-02-15T06:08:39;31.88;;;18.27;;
17441;SDS011;8838;50.144;8.176;2024-02-15T06:11:08;29.48;;;19.10;;
17441;SDS011;8838;50.144;8.176;2024-02-15T06:13:35;28.52;;;19.25;;
17441;SDS011;8838;50.144;8.176;2024-02-15T06:16:02;26.15;;;17.92;;
17441;SDS011;8838;50.144;8.176;2024-02-15T06:18:34;24.35;;;17.00;;
17441;SDS011;8838;50.144;8.176;2024-02-15T06:21:02;24.50;;;17.05;;
17441;SDS011;8838;50.144;8.176;2024-02-15T06:23:31;26.42;;;16.98;;
17441;SDS011;8838;50.144;8.176;2024-02-15T06:25:58;28.45;;;17.45;;
17441;SDS011;8838;50.144;8.176;2024-02-15T06:28:28;27.52;;;17.98;;
17441;SDS011;8838;50.144;8.176;2024-02-15T06:31:13;28.83;;;18.03;;
17441;SDS011;8838;50.144;8.176;2024-02-15T06:33:58;29.30;;;17.92;;
17441;SDS011;8838;50.144;8.176;2024-02-15T06:36:47;31.70;;;18.85;;
17441;SDS011;8838;50.144;8.176;2024-02-15T06:39:32;26.45;;;17.67;;
17441;SDS011;8838;50.144;8.176;2024-02-15T06:42:10;29.17;;;17.48;;
17441;SDS011;8838;50.144;8.176;2024-02-15T06:44:53;28.80;;;17.80;;
17441;SDS011;8838;50.144;8.176;2024-02-15T06:47:23;30.52;;;18.25;;
17441;SDS011;8838;50.144;8.176;2024-02-15T06:49:50;30.40;;;18.02;;
17441;SDS011;8838;50.144;8.176;2024-02-15T06:52:19;29.83;;;19.20;;
17441;SDS011;8838;50.144;8.176;2024-02-15T06:54:47;26.88;;;18.75;;
17441;SDS011;8838;50.144;8.176;2024-02-15T06:57:15;29.38;;;18.60;;
17441;SDS011;8838;50.144;8.176;2024-02-15T06:59:45;31.77;;;19.42;;
17441;SDS011;8838;50.144;8.176;2024-02-15T07:02:14;29.40;;;19.00;;
17441;SDS011;8838;50.144;8.176;2024-02-15T07:04:41;31.10;;;19.23;;
17441;SDS011;8838;50.144;8.176;2024-02-15T07:07:11;35.83;;;18.88;;
17441;SDS011;8838;50.144;8.176;2024-02-15T07:09:39;32.20;;;19.65;;
17441;SDS011;8838;50.144;8.176;2024-02-15T07:12:06;29.52;;;19.25;;
17441;SDS011;8838;50.144;8.176;2024-02-15T07:14:33;29.88;;;17.63;;
17441;SDS011;8838;50.144;8.176;2024-02-15T07:17:00;27.80;;;17.58;;
17441;SDS011;8838;50.144;8.176;2024-02-15T07:19:28;29.30;;;18.20;;
17441;SDS011;8838;50.144;8.176;2024-02-15T07:21:58;28.83;;;16.70;;
17441;SDS011;8838;50.144;8.176;2024-02-15T07:24:25;25.92;;;17.88;;
17441;SDS011;8838;50.144;8.176;2024-02-15T07:26:52;26.67;;;18.38;;
17441;SDS011;8838;50.144;8.176;2024-02-15T07:29:20;32.40;;;17.08;;
17441;SDS011;8838;50.144;8.176;2024-02-15T07:31:48;26.60;;;16.10;;
17441;SDS011;8838;50.144;8.176;2024-02-15T07:34:15;29.48;;;16.02;;
17441;SDS011;8838;50.144;8.176;2024-02-15T07:36:43;26.95;;;15.85;;
17441;SDS011;8838;50.144;8.176;2024-02-15T07:39:10;27.00;;;15.10;;
17441;SDS011;8838;50.144;8.176;2024-02-15T07:41:48;23.08;;;14.50;;
17441;SDS011;8838;50.144;8.176;2024-02-15T07:44:15;24.08;;;15.55;;
17441;SDS011;8838;50.144;8.176;2024-02-15T07:46:42;23.42;;;14.05;;
17441;SDS011;8838;50.144;8.176;2024-02-15T07:49:09;25.25;;;14.82;;
17441;SDS011;8838;50.144;8.176;2024-02-15T07:51:36;22.10;;;13.60;;
17441;SDS011;8838;50.144;8.176;2024-02-15T07:54:04;24.90;;;14.60;;
17441;SDS011;8838;50.144;8.176;2024-02-15T07:56:31;26.00;;;14.70;;
17441;SDS011;8838;50.144;8.176;2024-02-15T07:59:00;23.73;;;15.85;;
17441;SDS011;8838;50.144;8.176;2024-02-15T08:01:27;22.67;;;16.25;;
17441;SDS011;8838;50.144;8.176;2024-02-15T08:03:55;30.75;;;16.58;;
17441;SDS011;8838;50.144;8.176;2024-02-15T08:06:22;25.25;;;16.75;;
17441;SDS011;8838;50.144;8.176;2024-02-15T08:08:53;28.25;;;17.52;;
17441;SDS011;8838;50.144;8.176;2024-02-15T08:11:21;28.05;;;17.10;;
17441;SDS011;8838;50.144;8.176;2024-02-15T08:13:49;22.92;;;16.33;;
17441;SDS011;8838;50.144;8.176;2024-02-15T08:16:19;25.85;;;15.43;;
17441;SDS011;8838;50.144;8.176;2024-02-15T08:18:47;21.75;;;13.98;;
17441;SDS011;8838;50.144;8.176;2024-02-15T08:21:17;19.60;;;12.52;;
17441;SDS011;8838;50.144;8.176;2024-02-15T08:23:46;28.60;;;18.85;;
17441;SDS011;8838;50.144;8.176;2024-02-15T08:26:12;23.77;;;13.52;;
17441;SDS011;8838;50.144;8.176;2024-02-15T08:28:43;20.13;;;11.90;;
17441;SDS011;8838;50.144;8.176;2024-02-15T08:31:09;17.73;;;11.93;;
17441;SDS011;8838;50.144;8.176;2024-02-15T08:33:40;20.23;;;12.30;;
17441;SDS011;8838;50.144;8.176;2024-02-15T08:36:08;22.20;;;12.18;;
17441;SDS011;8838;50.144;8.176;2024-02-15T08:38:35;20.58;;;11.00;;
17441;SDS011;8838;50.144;8.176;2024-02-15T08:41:03;20.77;;;11.90;;
17441;SDS011;8838;50.144;8.176;2024-02-15T08:43:32;19.63;;;12.07;;
17441;SDS011;8838;50.144;8.176;2024-02-15T08:46:00;24.90;;;14.10;;
17441;SDS011;8838;50.144;8.176;2024-02-15T08:48:27;20.83;;;11.85;;
17441;SDS011;8838;50.144;8.176;2024-02-15T08:50:55;21.63;;;12.27;;
17441;SDS011;8838;50.144;8.176;2024-02-15T08:53:22;21.95;;;14.23;;
17441;SDS011;8838;50.144;8.176;2024-02-15T08:55:49;20.67;;;13.50;;
17441;SDS011;8838;50.144;8.176;2024-02-15T08:58:18;24.42;;;14.20;;
17441;SDS011;8838;50.144;8.176;2024-02-15T09:00:46;21.95;;;13.55;;
17441;SDS011;8838;50.144;8.176;2024-02-15T09:03:14;22.77;;;14.05;;
17441;SDS011;8838;50.144;8.176;2024-02-15T09:05:41;18.20;;;12.65;;
17441;SDS011;8838;50.144;8.176;2024-02-15T09:08:08;93.03;;;61.40;;
17441;SDS011;8838;50.144;8.176;2024-02-15T09:10:35;57.17;;;39.45;;
17441;SDS011;8838;50.144;8.176;2024-02-15T09:13:01;19.40;;;13.48;;
17441;SDS011;8838;50.144;8.176;2024-02-15T09:15:28;22.70;;;13.55;;
17441;SDS011;8838;50.144;8.176;2024-02-15T09:17:56;18.42;;;12.70;;
17441;SDS011;8838;50.144;8.176;2024-02-15T09:20:25;16.40;;;11.32;;
17441;SDS011;8838;50.144;8.176;2024-02-15T09:22:53;18.85;;;12.00;;
17441;SDS011;8838;50.144;8.176;2024-02-15T09:25:21;18.65;;;12.15;;
17441;SDS011;8838;50.144;8.176;2024-02-15T09:27:49;17.90;;;12.35;;
17441;SDS011;8838;50.144;8.176;2024-02-15T09:30:16;18.38;;;10.88;;
17441;SDS011;8838;50.144;8.176;2024-02-15T09:32:43;16.48;;;10.48;;
17441;SDS011;8838;50.144;8.176;2024-02-15T09:35:11;18.88;;;10.70;;
17441;SDS011;8838;50.144;8.176;2024-02-15T09:37:44;17.25;;;10.13;;
17441;SDS011;8838;50.144;8.176;2024-02-15T09:40:14;17.25;;;9.35;;
17441;SDS011;8838;50.144;8.176;2024-02-15T09:42:42;12.38;;;9.45;;
17441;SDS011;8838;50.144;8.176;2024-02-15T09:45:10;17.95;;;10.43;;
17441;SDS011;8838;50.144;8.176;2024-02-15T09:47:39;15.27;;;9.02;;
17441;SDS011;8838;50.144;8.176;2024-02-15T09:50:07;10.70;;;7.80;;
17441;SDS011;8838;50.144;8.176;2024-02-15T09:52:36;13.88;;;8.20;;
17441;SDS011;8838;50.144;8.176;2024-02-15T09:55:07;13.18;;;7.63;;
17441;SDS011;8838;50.144;8.176;2024-02-15T09:57:38;10.27;;;6.82;;
17441;SDS011;8838;50.144;8.176;2024-02-15T10:00:05;13.63;;;7.07;;
17441;SDS011;8838;50.144;8.176;2024-02-15T10:02:33;11.38;;;7.60;;
17441;SDS011;8838;50.144;8.176;2024-02-15T10:05:03;14.68;;;7.63;;
17441;SDS011;8838;50.144;8.176;2024-02-15T10:07:30;12.15;;;7.80;;
17441;SDS011;8838;50.144;8.176;2024-02-15T10:09:58;11.18;;;7.55;;
17441;SDS011;8838;50.144;8.176;2024-02-15T10:12:41;12.32;;;8.23;;
17441;SDS011;8838;50.144;8.176;2024-02-15T10:15:09;13.15;;;9.00;;
17441;SDS011;8838;50.144;8.176;2024-02-15T10:17:36;28.85;;;18.15;;
17441;SDS011;8838;50.144;8.176;2024-02-15T10:20:03;12.90;;;8.65;;
17441;SDS011;8838;50.144;8.176;2024-02-15T10:22:31;14.55;;;8.80;;
17441;SDS011;8838;50.144;8.176;2024-02-15T10:25:12;13.05;;;8.18;;
17441;SDS011;8838;50.144;8.176;2024-02-15T10:27:39;13.90;;;8.65;;
17441;SDS011;8838;50.144;8.176;2024-02-15T10:30:16;15.25;;;8.82;;
17441;SDS011;8838;50.144;8.176;2024-02-15T10:32:44;14.38;;;9.15;;
17441;SDS011;8838;50.144;8.176;2024-02-15T10:35:18;14.13;;;8.88;;
17441;SDS011;8838;50.144;8.176;2024-02-15T10:37:46;12.85;;;8.65;;
17441;SDS011;8838;50.144;8.176;2024-02-15T10:40:18;13.55;;;8.57;;
17441;SDS011;8838;50.144;8.176;2024-02-15T10:42:46;15.20;;;8.95;;
17441;SDS011;8838;50.144;8.176;2024-02-15T10:45:14;13.65;;;8.15;;
17441;SDS011;8838;50.144;8.176;2024-02-15T10:47:44;16.33;;;8.90;;
17441;SDS011;8838;50.144;8.176;2024-02-15T10:50:12;13.45;;;8.35;;
17441;SDS011;8838;50.144;8.176;2024-02-15T10:52:43;12.38;;;6.82;;
17441;SDS011;8838;50.144;8.176;2024-02-15T10:55:19;13.23;;;6.90;;
17441;SDS011;8838;50.144;8.176;2024-02-15T10:57:52;10.45;;;6.28;;
17441;SDS011;8838;50.144;8.176;2024-02-15T11:00:22;11.25;;;6.22;;
17441;SDS011;8838;50.144;8.176;2024-02-15T11:02:59;13.63;;;6.50;;
17441;SDS011;8838;50.144;8.176;2024-02-15T11:05:30;12.98;;;6.53;;
17441;SDS011;8838;50.144;8.176;2024-02-15T11:08:01;13.57;;;6.35;;
17441;SDS011;8838;50.144;8.176;2024-02-15T11:10:31;15.02;;;7.30;;
17441;SDS011;8838;50.144;8.176;2024-02-15T11:12:58;12.27;;;6.53;;
17441;SDS011;8838;50.144;8.176;2024-02-15T11:15:42;13.38;;;6.70;;
17441;SDS011;8838;50.144;8.176;2024-02-15T11:18:19;10.48;;;5.65;;
17441;SDS011;8838;50.144;8.176;2024-02-15T11:21:16;12.70;;;5.65;;
17441;SDS011;8838;50.144;8.176;2024-02-15T11:23:43;7.45;;;5.47;;
17441;SDS011;8838;50.144;8.176;2024-02-15T11:26:42;9.90;;;5.57;;
17441;SDS011;8838;50.144;8.176;2024-02-15T11:29:20;15.68;;;5.70;;
17441;SDS011;8838;50.144;8.176;2024-02-15T11:32:38;8.15;;;4.97;;
17441;SDS011;8838;50.144;8.176;2024-02-15T11:35:09;9.00;;;4.32;;
17441;SDS011;8838;50.144;8.176;2024-02-15T11:37:55;9.13;;;4.05;;
17441;SDS011;8838;50.144;8.176;2024-02-15T11:43:49;9.98;;;3.63;;
17441;SDS011;8838;50.144;8.176;2024-02-15T11:46:21;9.25;;;3.70;;
17441;SDS011;8838;50.144;8.176;2024-02-15T11:48:51;9.63;;;3.92;;
17441;SDS011;8838;50.144;8.176;2024-02-15T11:51:25;7.68;;;3.90;;
17441;SDS011;8838;50.144;8.176;2024-02-15T11:53:59;7.72;;;3.85;;
17441;SDS011;8838;50.144;8.176;2024-02-15T11:56:30;8.35;;;4.07;;
17441;SDS011;8838;50.144;8.176;2024-02-15T11:59:03;9.38;;;4.03;;
17441;SDS011;8838;50.144;8.176;2024-02-15T12:01:31;8.05;;;4.10;;
17441;SDS011;8838;50.144;8.176;2024-02-15T12:04:16;7.72;;;3.70;;
17441;SDS011;8838;50.144;8.176;2024-02-15T12:07:01;9.40;;;4.13;;
17441;SDS011;8838;50.144;8.176;2024-02-15T12:09:46;8.73;;;4.28;;
17441;SDS011;8838;50.144;8.176;2024-02-15T12:12:30;11.82;;;3.95;;
17441;SDS011;8838;50.144;8.176;2024-02-15T12:15:15;11.50;;;3.92;;
17441;SDS011;8838;50.144;8.176;2024-02-15T12:18:13;9.65;;;4.00;;
17441;SDS011;8838;50.144;8.176;2024-02-15T12:20:57;7.68;;;4.15;;
17441;SDS011;8838;50.144;8.176;2024-02-15T12:23:25;8.80;;;4.47;;
17441;SDS011;8838;50.144;8.176;2024-02-15T12:25:52;10.38;;;3.70;;
17441;SDS011;8838;50.144;8.176;2024-02-15T12:28:19;7.03;;;3.50;;
17441;SDS011;8838;50.144;8.176;2024-02-15T12:30:48;8.18;;;3.75;;
17441;SDS011;8838;50.144;8.176;2024-02-15T12:33:21;10.30;;;3.83;;
17441;SDS011;8838;50.144;8.176;2024-02-15T12:35:48;9.70;;;3.28;;
17441;SDS011;8838;50.144;8.176;2024-02-15T12:38:16;8.45;;;3.60;;
17441;SDS011;8838;50.144;8.176;2024-02-15T12:40:43;6.85;;;4.20;;
17441;SDS011;8838;50.144;8.176;2024-02-15T12:43:10;6.03;;;3.28;;
17441;SDS011;8838;50.144;8.176;2024-02-15T12:45:38;7.45;;;3.58;;
17441;SDS011;8838;50.144;8.176;2024-02-15T12:48:07;6.30;;;3.42;;
17441;SDS011;8838;50.144;8.176;2024-02-15T12:50:35;7.07;;;3.28;;
17441;SDS011;8838;50.144;8.176;2024-02-15T12:53:03;6.25;;;3.08;;
17441;SDS011;8838;50.144;8.176;2024-02-15T12:55:31;4.50;;;2.53;;
17441;SDS011;8838;50.144;8.176;2024-02-15T12:58:01;12.90;;;3.28;;
17441;SDS011;8838;50.144;8.176;2024-02-15T13:00:33;7.30;;;2.92;;
17441;SDS011;8838;50.144;8.176;2024-02-15T13:03:04;7.60;;;3.00;;
17441;SDS011;8838;50.144;8.176;2024-02-15T13:05:35;8.05;;;2.95;;
17441;SDS011;8838;50.144;8.176;2024-02-15T13:08:02;8.65;;;2.88;;
17441;SDS011;8838;50.144;8.176;2024-02-15T13:10:31;7.85;;;2.88;;
17441;SDS011;8838;50.144;8.176;2024-02-15T13:12:58;6.68;;;2.80;;
17441;SDS011;8838;50.144;8.176;2024-02-15T13:15:24;8.38;;;2.72;;
17441;SDS011;8838;50.144;8.176;2024-02-15T13:17:57;6.47;;;2.55;;
17441;SDS011;8838;50.144;8.176;2024-02-15T13:20:25;8.98;;;2.97;;
17441;SDS011;8838;50.144;8.176;2024-02-15T13:22:58;9.73;;;3.05;;
17441;SDS011;8838;50.144;8.176;2024-02-15T13:25:27;7.50;;;3.05;;
17441;SDS011;8838;50.144;8.176;2024-02-15T13:27:54;8.45;;;3.15;;
17441;SDS011;8838;50.144;8.176;2024-02-15T13:30:21;7.93;;;2.85;;
17441;SDS011;8838;50.144;8.176;2024-02-15T13:32:52;5.75;;;2.42;;
17441;SDS011;8838;50.144;8.176;2024-02-15T13:35:20;11.40;;;3.35;;
17441;SDS011;8838;50.144;8.176;2024-02-15T13:37:48;7.93;;;3.15;;
17441;SDS011;8838;50.144;8.176;2024-02-15T13:40:18;9.45;;;3.38;;
17441;SDS011;8838;50.144;8.176;2024-02-15T13:42:48;5.72;;;2.85;;
17441;SDS011;8838;50.144;8.176;2024-02-15T13:45:17;7.32;;;2.63;;
17441;SDS011;8838;50.144;8.176;2024-02-15T13:47:45;9.13;;;2.65;;
17441;SDS011;8838;50.144;8.176;2024-02-15T13:50:13;8.32;;;3.00;;
17441;SDS011;8838;50.144;8.176;2024-02-15T13:52:40;8.10;;;3.00;;
17441;SDS011;8838;50.144;8.176;2024-02-15T13:55:08;7.15;;;2.50;;
17441;SDS011;8838;50.144;8.176;2024-02-15T13:57:37;8.95;;;2.70;;
17441;SDS011;8838;50.144;8.176;2024-02-15T14:00:05;7.50;;;2.70;;
17441;SDS011;8838;50.144;8.176;2024-02-15T14:02:38;10.60;;;2.83;;
17441;SDS011;8838;50.144;8.176;2024-02-15T14:05:06;8.07;;;2.95;;
17441;SDS011;8838;50.144;8.176;2024-02-15T14:07:34;10.15;;;2.97;;
17441;SDS011;8838;50.144;8.176;2024-02-15T14:10:01;6.82;;;3.30;;
17441;SDS011;8838;50.144;8.176;2024-02-15T14:12:28;10.85;;;3.35;;
17441;SDS011;8838;50.144;8.176;2024-02-15T14:14:56;6.05;;;2.65;;
17441;SDS011;8838;50.144;8.176;2024-02-15T14:17:23;9.20;;;3.25;;
17441;SDS011;8838;50.144;8.176;2024-02-15T14:19:50;7.85;;;2.75;;
17441;SDS011;8838;50.144;8.176;2024-02-15T14:22:17;6.97;;;2.17;;
17441;SDS011;8838;50.144;8.176;2024-02-15T14:24:43;5.63;;;2.42;;
17441;SDS011;8838;50.144;8.176;2024-02-15T14:27:10;8.65;;;3.08;;
17441;SDS011;8838;50.144;8.176;2024-02-15T14:29:39;10.00;;;2.75;;
17441;SDS011;8838;50.144;8.176;2024-02-15T14:32:28;7.57;;;2.25;;
17441;SDS011;8838;50.144;8.176;2024-02-15T14:35:13;5.18;;;1.95;;
17441;SDS011;8838;50.144;8.176;2024-02-15T14:37:42;4.10;;;2.05;;
17441;SDS011;8838;50.144;8.176;2024-02-15T14:40:09;8.35;;;2.60;;
17441;SDS011;8838;50.144;8.176;2024-02-15T14:42:39;8.77;;;2.58;;
17441;SDS011;8838;50.144;8.176;2024-02-15T14:45:07;6.15;;;2.40;;
17441;SDS011;8838;50.144;8.176;2024-02-15T14:47:36;8.07;;;2.33;;
17441;SDS011;8838;50.144;8.176;2024-02-15T14:50:03;10.43;;;3.55;;
17441;SDS011;8838;50.144;8.176;2024-02-15T14:52:33;5.65;;;2.55;;
17441;SDS011;8838;50.144;8.176;2024-02-15T14:55:00;5.50;;;2.10;;
17441;SDS011;8838;50.144;8.176;2024-02-15T14:57:30;9.00;;;2.72;;
17441;SDS011;8838;50.144;8.176;2024-02-15T14:59:57;6.78;;;2.65;;
17441;SDS011;8838;50.144;8.176;2024-02-15T15:02:23;6.35;;;2.58;;